createdAt,value
2019-03-06T00:01:54.489Z,5.10
2019-03-06T00:04:27.210Z,5.10
2019-03-06T00:23:30.370Z,5.00
2019-03-06T00:25:59.833Z,5.00
2019-03-06T00:28:29.143Z,5.10
2019-03-06T00:30:58.725Z,5.00
2019-03-06T00:33:27.958Z,5.00
2019-03-06T00:35:57.584Z,5.00
2019-03-06T00:38:27.018Z,5.00
2019-03-06T00:41:33.462Z,5.00
2019-03-06T00:44:02.946Z,5.10
2019-03-06T00:46:32.992Z,5.00
2019-03-06T00:49:03.431Z,5.00
2019-03-06T00:51:32.798Z,5.00
2019-03-06T00:54:02.065Z,5.00
2019-03-06T00:56:31.449Z,4.90
2019-03-06T00:59:02.696Z,4.90
2019-03-06T01:01:31.858Z,4.90
2019-03-06T01:04:01.212Z,4.90
2019-03-06T01:06:30.553Z,4.80
2019-03-06T01:08:59.781Z,4.80
2019-03-06T01:11:29.388Z,4.80
2019-03-06T01:13:58.755Z,4.70
2019-03-06T01:16:28.245Z,4.70
2019-03-06T01:18:57.785Z,4.60
2019-03-06T01:21:27.105Z,4.60
2019-03-06T01:23:56.372Z,4.60
2019-03-06T01:26:25.628Z,4.50
2019-03-06T01:28:54.850Z,4.50
2019-03-06T01:31:26.252Z,4.50
2019-03-06T01:34:10.127Z,4.50
2019-03-06T01:37:01.525Z,4.50
2019-03-06T01:39:48.489Z,4.40
2019-03-06T01:42:36.847Z,4.50
2019-03-06T01:45:08.243Z,4.50
2019-03-06T01:47:37.567Z,4.50
2019-03-06T01:50:09.780Z,4.50
2019-03-06T01:52:38.928Z,4.40
2019-03-06T01:55:09.626Z,4.40
2019-03-06T01:57:38.940Z,4.40
2019-03-06T02:00:11.008Z,4.50
2019-03-06T02:02:40.210Z,4.40
2019-03-06T02:05:10.325Z,4.40
2019-03-06T02:07:39.885Z,4.40
2019-03-06T02:10:09.800Z,4.30
2019-03-06T02:12:39.100Z,4.30
2019-03-06T02:15:09.296Z,4.30
2019-03-06T02:17:38.807Z,4.20
2019-03-06T02:20:10.053Z,4.10
2019-03-06T02:22:39.589Z,4.10
2019-03-06T02:25:08.859Z,4.10
2019-03-06T02:27:38.043Z,4.10
2019-03-06T02:30:10.517Z,4.10
2019-03-06T02:32:40.216Z,4.10
2019-03-06T02:35:09.571Z,4.10
2019-03-06T02:37:40.517Z,4.20
2019-03-06T02:40:11.854Z,4.10
2019-03-06T02:42:42.963Z,4.10
2019-03-06T02:45:16.405Z,4.00
2019-03-06T02:47:46.757Z,4.10
2019-03-06T02:50:19.194Z,4.00
2019-03-06T02:52:49.180Z,4.00
2019-03-06T02:55:21.695Z,4.00
2019-03-06T02:58:11.039Z,4.00
2019-03-06T03:01:02.301Z,4.00
2019-03-06T03:03:56.674Z,4.00
2019-03-06T03:06:34.412Z,3.90
2019-03-06T03:09:08.716Z,3.90
2019-03-06T03:11:44.166Z,3.90
2019-03-06T03:14:16.383Z,3.80
2019-03-06T03:16:49.456Z,3.80
2019-03-06T03:19:22.674Z,3.90
2019-03-06T03:21:54.962Z,3.90
2019-03-06T03:24:26.015Z,3.80
2019-03-06T03:26:58.392Z,3.80
2019-03-06T03:29:41.010Z,3.80
2019-03-06T03:32:12.793Z,3.80
2019-03-06T03:34:43.013Z,3.80
2019-03-06T03:37:14.437Z,3.80
2019-03-06T03:39:45.334Z,3.80
2019-03-06T03:42:16.353Z,3.80
2019-03-06T03:44:47.122Z,3.80
2019-03-06T03:47:23.265Z,3.80
2019-03-06T03:49:55.998Z,3.80
2019-03-06T03:52:27.347Z,3.80
2019-03-06T03:55:01.496Z,3.80
2019-03-06T03:57:35.474Z,3.80
2019-03-06T04:00:07.693Z,3.80
2019-03-06T04:02:36.939Z,3.70
2019-03-06T04:05:06.651Z,3.70
2019-03-06T04:07:37.045Z,3.60
2019-03-06T04:10:06.928Z,3.70
2019-03-06T04:12:36.128Z,3.60
2019-03-06T04:15:06.202Z,3.50
2019-03-06T04:17:35.400Z,3.50
2019-03-06T04:20:04.829Z,3.40
2019-03-06T04:22:34.135Z,3.40
2019-03-06T04:25:03.472Z,3.30
2019-03-06T04:27:32.687Z,3.30
2019-03-06T04:30:01.960Z,3.30
2019-03-06T04:32:31.185Z,3.30
2019-03-06T04:35:00.361Z,3.30
2019-03-06T04:37:29.561Z,3.20
2019-03-06T04:39:58.745Z,3.20
2019-03-06T04:42:27.939Z,3.20
2019-03-06T04:44:57.126Z,3.10
2019-03-06T04:47:26.327Z,3.10
2019-03-06T04:49:55.541Z,3.10
2019-03-06T04:52:24.763Z,3.10
2019-03-06T04:54:53.954Z,3.00
2019-03-06T04:57:23.429Z,3.00
2019-03-06T04:59:52.687Z,3.00
2019-03-06T05:02:21.902Z,3.00
2019-03-06T05:04:51.284Z,3.00
2019-03-06T05:07:20.475Z,2.90
2019-03-06T05:09:49.704Z,2.90
2019-03-06T05:12:18.924Z,2.90
2019-03-06T05:14:48.202Z,2.90
2019-03-06T05:17:26.812Z,2.90
2019-03-06T05:19:56.035Z,2.90
2019-03-06T05:22:25.274Z,2.80
2019-03-06T05:24:54.534Z,2.80
2019-03-06T05:27:24.984Z,2.80
2019-03-06T05:29:54.142Z,2.80
2019-03-06T05:32:30.932Z,2.80
2019-03-06T05:35:20.920Z,4.30
2019-03-06T05:38:05.604Z,6.10
2019-03-06T05:40:34.955Z,7.00
2019-03-06T05:43:13.373Z,7.30
2019-03-06T05:45:42.773Z,5.90
2019-03-06T05:48:12.025Z,5.10
2019-03-06T05:50:41.459Z,4.60
2019-03-06T05:56:09.952Z,4.00
2019-03-06T05:58:39.250Z,3.80
2019-03-06T06:01:33.057Z,3.60
2019-03-06T06:04:02.303Z,3.60
2019-03-06T06:06:31.549Z,3.40
2019-03-06T06:09:00.821Z,3.40
2019-03-06T06:11:31.118Z,3.20
2019-03-06T06:14:24.682Z,3.20
2019-03-06T06:16:59.954Z,3.10
2019-03-06T06:20:55.549Z,3.00
2019-03-06T06:24:28.602Z,2.90
2019-03-06T06:26:52.828Z,2.90
2019-03-06T06:38:29.983Z,2.90
2019-03-06T06:41:02.853Z,3.00
2019-03-06T06:44:13.994Z,3.00
2019-03-06T06:47:15.059Z,3.10
2019-03-06T06:49:48.429Z,3.20
2019-03-06T06:53:38.761Z,3.20
2019-03-06T06:56:52.294Z,3.30
2019-03-06T06:59:42.871Z,3.30
2019-03-06T07:03:03.048Z,3.40
2019-03-06T07:05:54.962Z,3.40
2019-03-06T07:09:39.179Z,3.60
2019-03-06T07:12:18.894Z,3.60
2019-03-06T07:15:19.452Z,3.80
2019-03-06T07:18:26.662Z,3.80
2019-03-06T07:22:08.701Z,3.90
2019-03-06T07:25:29.178Z,4.10
2019-03-06T07:29:03.656Z,4.20
2019-03-06T07:31:50.168Z,4.20
2019-03-06T07:35:43.799Z,4.30
2019-03-06T07:37:52.934Z,4.40
2019-03-06T07:41:18.802Z,4.40
2019-03-06T07:44:29.877Z,4.50
2019-03-06T07:47:41.994Z,4.70
2019-03-06T07:54:39.911Z,4.90
2019-03-06T07:57:55.472Z,5.00
2019-03-06T08:00:36.035Z,5.20
2019-03-06T08:03:55.069Z,5.50
2019-03-06T08:06:33.583Z,5.80
2019-03-06T08:09:25.516Z,6.00
2019-03-06T08:12:46.712Z,6.20
2019-03-06T08:15:43.520Z,6.40
2019-03-06T08:18:42.809Z,6.70
2019-03-06T08:21:45.163Z,7.00
2019-03-06T08:24:37.914Z,7.20
2019-03-06T08:27:20.545Z,7.50
2019-03-06T08:29:55.253Z,7.70
2019-03-06T08:32:35.549Z,8.00
2019-03-06T08:35:20.532Z,8.30
2019-03-06T08:37:58.379Z,8.50
2019-03-06T08:40:44.644Z,8.70
2019-03-06T08:43:30.670Z,8.80
2019-03-06T08:46:29.548Z,8.90
2019-03-06T08:49:11.624Z,9.20
2019-03-06T08:52:01.890Z,9.50
2019-03-06T08:54:40.080Z,9.70
2019-03-06T08:57:28.726Z,9.90
2019-03-06T09:00:30.586Z,10.20
2019-03-06T09:03:22.419Z,10.30
2019-03-06T09:06:25.700Z,10.50
2019-03-06T09:15:29.207Z,10.70
2019-03-06T09:18:18.770Z,10.90
2019-03-06T09:21:13.589Z,11.10
2019-03-06T09:24:03.048Z,11.30
2019-03-06T09:27:05.648Z,11.50
2019-03-06T09:29:53.307Z,11.80
2019-03-06T09:33:00.510Z,12.00
2019-03-06T09:35:56.660Z,12.10
2019-03-06T09:38:43.483Z,12.30
2019-03-06T09:41:43.755Z,12.40
2019-03-06T09:44:45.030Z,12.70
2019-03-06T09:47:42.150Z,12.80
2019-03-06T09:50:21.785Z,13.10
2019-03-06T09:53:41.765Z,13.40
2019-03-06T09:57:02.800Z,13.50
2019-03-06T09:59:36.129Z,13.70
2019-03-06T10:02:20.189Z,13.70
2019-03-06T10:05:02.987Z,13.90
2019-03-06T10:07:48.515Z,13.90
2019-03-06T10:10:46.134Z,14.20
2019-03-06T10:13:52.182Z,14.30
2019-03-06T10:16:38.063Z,14.40
2019-03-06T10:19:16.311Z,14.30
2019-03-06T10:21:46.014Z,14.40
2019-03-06T10:24:17.705Z,14.40
2019-03-06T10:26:50.737Z,14.50
2019-03-06T10:29:20.954Z,14.60
2019-03-06T10:31:52.768Z,14.70
2019-03-06T10:34:24.260Z,14.80
2019-03-06T10:36:53.695Z,14.90
2019-03-06T10:39:24.240Z,14.90
2019-03-06T10:41:56.293Z,14.90
2019-03-06T10:44:29.842Z,14.90
2019-03-06T10:46:58.656Z,14.70
2019-03-06T10:49:30.794Z,14.70
2019-03-06T10:52:05.383Z,14.60
2019-03-06T10:54:37.908Z,14.50
2019-03-06T10:57:07.894Z,14.50
2019-03-06T10:59:37.537Z,14.70
2019-03-06T11:02:07.554Z,14.70
2019-03-06T11:04:50.457Z,14.80
2019-03-06T11:07:22.405Z,14.80
2019-03-06T11:09:52.001Z,15.10
2019-03-06T11:12:22.595Z,15.20
2019-03-06T11:14:52.027Z,15.20
2019-03-06T11:17:24.485Z,15.20
2019-03-06T11:19:59.764Z,15.20
2019-03-06T11:22:29.558Z,15.40
2019-03-06T11:25:07.521Z,15.30
2019-03-06T11:27:38.755Z,15.40
2019-03-06T11:30:15.750Z,15.40
2019-03-06T11:32:54.130Z,15.30
2019-03-06T11:35:17.997Z,15.30
2019-03-06T11:37:52.894Z,15.30
2019-03-06T11:40:22.964Z,15.30
2019-03-06T11:42:52.388Z,15.30
2019-03-06T11:45:22.640Z,15.20
2019-03-06T11:47:53.474Z,15.00
2019-03-06T11:50:23.004Z,15.10
2019-03-06T11:52:52.952Z,15.10
2019-03-06T11:55:22.844Z,15.10
2019-03-06T11:57:52.315Z,14.90
2019-03-06T12:00:31.962Z,14.70
2019-03-06T12:03:01.479Z,14.60
2019-03-06T12:05:31.335Z,14.80
2019-03-06T12:08:01.849Z,15.00
2019-03-06T12:10:31.472Z,15.00
2019-03-06T12:13:01.373Z,14.90
2019-03-06T12:15:30.986Z,14.80
2019-03-06T12:18:00.590Z,14.50
2019-03-06T12:20:30.001Z,14.50
2019-03-06T12:22:59.526Z,14.50
2019-03-06T12:25:29.005Z,14.60
2019-03-06T12:28:01.452Z,14.50
2019-03-06T12:30:31.270Z,14.50
2019-03-06T12:33:01.448Z,14.50
2019-03-06T12:35:31.134Z,14.60
2019-03-06T12:38:04.050Z,14.30
2019-03-06T12:40:35.152Z,14.10
2019-03-06T12:43:07.398Z,14.10
2019-03-06T12:45:38.697Z,14.10
2019-03-06T12:48:09.532Z,14.00
2019-03-06T12:53:33.073Z,14.00
2019-03-06T12:56:04.371Z,14.00
2019-03-06T12:58:37.991Z,14.00
2019-03-06T13:01:28.568Z,14.10
2019-03-06T13:04:00.821Z,14.20
2019-03-06T13:06:39.359Z,14.50
2019-03-06T13:09:32.938Z,14.70
2019-03-06T13:12:03.427Z,14.90
2019-03-06T13:14:32.979Z,15.00
2019-03-06T13:17:04.072Z,15.20
2019-03-06T13:19:34.740Z,15.20
2019-03-06T13:22:11.185Z,15.20
2019-03-06T13:24:37.377Z,15.30
2019-03-06T13:27:07.939Z,15.50
2019-03-06T13:29:38.526Z,15.80
2019-03-06T13:32:13.300Z,15.90
2019-03-06T13:35:07.313Z,16.00
2019-03-06T13:37:36.661Z,16.10
2019-03-06T13:40:07.168Z,16.20
2019-03-06T13:42:36.704Z,16.30
2019-03-06T13:45:10.975Z,16.20
2019-03-06T13:47:55.409Z,16.40
2019-03-06T13:50:26.363Z,16.50
2019-03-06T13:53:01.553Z,16.60
2019-03-06T13:55:34.029Z,16.50
2019-03-06T13:58:12.306Z,16.50
2019-03-06T14:00:50.610Z,16.60
2019-03-06T14:03:22.348Z,16.60
2019-03-06T14:06:11.006Z,16.50
2019-03-06T14:08:43.289Z,16.20
2019-03-06T14:11:17.279Z,16.10
2019-03-06T14:13:58.492Z,16.00
2019-03-06T14:16:25.845Z,16.00
2019-03-06T14:18:55.573Z,16.00
2019-03-06T14:21:26.543Z,16.00
2019-03-06T14:23:57.481Z,15.90
2019-03-06T14:26:26.965Z,15.90
2019-03-06T14:28:56.568Z,15.90
2019-03-06T14:31:27.610Z,15.90
2019-03-06T14:33:57.037Z,15.90
2019-03-06T14:36:26.489Z,15.80
2019-03-06T14:38:55.860Z,15.90
2019-03-06T14:41:25.662Z,16.00
2019-03-06T14:43:55.071Z,16.10
2019-03-06T14:46:24.902Z,16.00
2019-03-06T14:48:59.040Z,16.00
2019-03-06T14:51:27.136Z,16.00
2019-03-06T14:53:56.911Z,16.00
2019-03-06T14:56:26.544Z,15.90
2019-03-06T14:58:56.862Z,15.70
2019-03-06T15:01:27.010Z,15.70
2019-03-06T15:03:56.549Z,15.70
2019-03-06T15:06:29.413Z,15.70
2019-03-06T15:08:59.342Z,15.50
2019-03-06T15:11:33.102Z,15.30
2019-03-06T15:14:00.098Z,15.20
2019-03-06T15:16:29.495Z,15.00
2019-03-06T15:18:59.107Z,14.90
2019-03-06T15:21:59.907Z,14.70
2019-03-06T15:24:40.891Z,14.40
2019-03-06T15:27:05.111Z,14.40
2019-03-06T15:29:36.112Z,14.20
2019-03-06T15:32:07.054Z,14.30
2019-03-06T15:34:58.630Z,14.20
2019-03-06T15:37:29.385Z,14.10
2019-03-06T15:40:00.383Z,14.00
2019-03-06T15:42:32.199Z,14.00
2019-03-06T15:45:01.554Z,13.80
2019-03-06T15:47:33.931Z,13.80
2019-03-06T15:50:02.769Z,13.70
2019-03-06T15:52:32.318Z,13.70
2019-03-06T15:55:04.157Z,13.60
2019-03-06T15:57:34.083Z,13.60
2019-03-06T16:00:05.474Z,13.60
2019-03-06T16:02:34.881Z,13.60
2019-03-06T16:05:05.464Z,13.60
2019-03-06T16:07:34.815Z,13.70
2019-03-06T16:10:05.024Z,13.60
2019-03-06T16:15:31.663Z,13.50
2019-03-06T16:18:02.177Z,13.50
2019-03-06T16:20:32.213Z,13.30
2019-03-06T16:23:02.293Z,13.30
2019-03-06T16:25:37.970Z,13.20
2019-03-06T16:28:10.737Z,13.20
2019-03-06T16:30:40.719Z,13.10
2019-03-06T16:33:13.086Z,13.20
2019-03-06T16:35:43.587Z,13.20
2019-03-06T16:38:36.036Z,13.30
2019-03-06T16:42:10.358Z,13.20
2019-03-06T16:44:51.606Z,13.20
2019-03-06T16:56:39.676Z,12.70
2019-03-06T16:59:38.548Z,12.60
2019-03-06T17:41:59.597Z,11.70
2019-03-06T17:44:31.064Z,11.70
2019-03-06T17:47:26.035Z,12.40
2019-03-06T17:50:00.413Z,12.70
2019-03-06T17:52:33.048Z,12.30
2019-03-06T17:55:03.779Z,12.10
2019-03-06T17:57:45.228Z,12.00
2019-03-06T18:00:27.349Z,11.90
2019-03-06T18:05:58.079Z,11.70
2019-03-06T18:08:34.721Z,11.70
2019-03-06T18:14:06.289Z,11.60
2019-03-06T18:17:40.698Z,11.50
2019-03-06T18:20:18.601Z,11.50
2019-03-06T18:27:55.031Z,11.40
2019-03-06T18:36:07.223Z,11.40
2019-03-06T18:39:18.681Z,11.50
2019-03-06T18:42:07.237Z,11.50
2019-03-06T18:53:35.475Z,11.60
2019-03-06T18:56:14.990Z,11.60
2019-03-06T18:58:48.399Z,11.60
2019-03-06T19:04:40.548Z,11.60
2019-03-06T19:07:20.461Z,11.60
2019-03-06T19:13:46.949Z,11.60
2019-03-06T19:16:18.008Z,11.60
2019-03-06T19:22:35.613Z,11.60
2019-03-06T19:25:06.305Z,11.60
2019-03-06T19:27:35.713Z,11.60
2019-03-06T19:30:19.009Z,11.60
2019-03-06T19:32:52.870Z,11.60
2019-03-06T19:35:25.623Z,11.60
2019-03-06T19:38:07.458Z,11.60
2019-03-06T19:40:39.938Z,11.60
2019-03-06T19:43:13.448Z,11.50
2019-03-06T19:45:44.220Z,11.50
2019-03-06T19:48:14.997Z,11.50
2019-03-06T19:50:46.425Z,11.50
2019-03-06T19:53:47.332Z,11.50
2019-03-06T19:56:32.491Z,11.50
2019-03-06T19:59:18.893Z,11.50
2019-03-06T20:07:33.098Z,11.50
2019-03-06T20:24:00.421Z,11.40
2019-03-06T20:26:42.975Z,11.40
2019-03-06T20:29:18.436Z,11.40
2019-03-06T20:32:02.408Z,11.40
2019-03-06T20:35:07.486Z,11.40
2019-03-06T20:45:38.959Z,11.40
2019-03-06T21:29:42.197Z,11.40
2019-03-06T21:32:21.643Z,11.30
2019-03-06T21:34:52.152Z,11.30
2019-03-06T21:37:23.000Z,11.20
2019-03-06T21:39:53.077Z,11.20
2019-03-06T21:42:22.725Z,11.20
2019-03-06T21:44:52.712Z,11.10
2019-03-06T21:47:22.991Z,11.10
2019-03-06T21:55:30.651Z,11.10
2019-03-06T21:57:59.979Z,11.00
2019-03-06T22:00:30.569Z,11.00
2019-03-06T22:03:02.429Z,11.00
2019-03-06T22:09:36.030Z,11.00
2019-03-06T22:12:04.809Z,10.90
2019-03-06T22:14:37.136Z,10.90
2019-03-06T22:17:16.875Z,10.80
2019-03-06T22:19:48.261Z,10.80
2019-03-06T22:30:17.001Z,10.70
2019-03-06T22:32:48.120Z,10.70
2019-03-06T22:35:17.858Z,10.70
2019-03-06T22:38:18.266Z,10.70
2019-03-06T22:41:10.592Z,10.70
2019-03-06T22:43:47.180Z,10.70
2019-03-06T22:46:25.991Z,10.60
2019-03-06T22:49:37.631Z,10.60
2019-03-06T22:58:33.579Z,10.50
2019-03-06T23:01:10.330Z,10.50
2019-03-06T23:03:40.470Z,10.40
2019-03-06T23:06:14.613Z,10.40
2019-03-06T23:08:44.406Z,10.40
2019-03-06T23:11:15.927Z,10.40
2019-03-06T23:14:05.357Z,10.40
2019-03-06T23:22:20.778Z,10.30
2019-03-06T23:24:56.066Z,10.30
2019-03-06T23:38:09.618Z,10.20
2019-03-06T23:41:30.592Z,10.30
2019-03-06T23:44:17.525Z,10.30
2019-03-06T23:46:47.083Z,10.20
2019-03-06T23:54:56.067Z,10.10
2019-03-06T23:57:25.609Z,10.10
